Аэропорт: Сокол. Магадан

ICAO: UHMM

METAR:
2021-07-28 13:00:00
UHMM 281300Z 34001MPS 9999 SCT040 12/04 Q1008 NOSIG RMK QFE741 R28/04001MPS
METAR:
2021-07-28 10:48:00
TAF UHMM 281048Z 2812/2918 04003G10MPS 9999 SCT040 TEMPO 2815/2902 3100 -SHRA BR BKN011 BKN020CB